sensor_id;sensor_type;location;lat;lon;timestamp;P1;durP1;ratioP1;P2;durP2;ratioP2
61704;SDS011;47627;48.078;11.522;2023-12-04T00:00:04;19.95;;;13.05;;
61704;SDS011;47627;48.078;11.522;2023-12-04T00:05:04;20.20;;;13.05;;
61704;SDS011;47627;48.078;11.522;2023-12-04T00:07:29;22.00;;;13.73;;
61704;SDS011;47627;48.078;11.522;2023-12-04T00:09:54;23.55;;;13.77;;
61704;SDS011;47627;48.078;11.522;2023-12-04T00:12:19;19.45;;;12.73;;
61704;SDS011;47627;48.078;11.522;2023-12-04T00:14:45;19.27;;;12.35;;
61704;SDS011;47627;48.078;11.522;2023-12-04T00:17:10;19.73;;;12.43;;
61704;SDS011;47627;48.078;11.522;2023-12-04T00:19:35;22.00;;;13.45;;
61704;SDS011;47627;48.078;11.522;2023-12-04T00:22:01;18.95;;;12.98;;
61704;SDS011;47627;48.078;11.522;2023-12-04T00:24:26;19.88;;;13.65;;
61704;SDS011;47627;48.078;11.522;2023-12-04T00:26:51;18.27;;;13.43;;
61704;SDS011;47627;48.078;11.522;2023-12-04T00:29:16;18.20;;;12.25;;
61704;SDS011;47627;48.078;11.522;2023-12-04T00:31:41;23.90;;;14.40;;
61704;SDS011;47627;48.078;11.522;2023-12-04T00:34:07;24.50;;;13.95;;
61704;SDS011;47627;48.078;11.522;2023-12-04T00:36:32;21.90;;;14.82;;
61704;SDS011;47627;48.078;11.522;2023-12-04T00:38:57;22.50;;;14.52;;
61704;SDS011;47627;48.078;11.522;2023-12-04T00:41:22;23.10;;;14.80;;
61704;SDS011;47627;48.078;11.522;2023-12-04T00:43:47;22.20;;;14.48;;
61704;SDS011;47627;48.078;11.522;2023-12-04T00:46:13;23.83;;;14.63;;
61704;SDS011;47627;48.078;11.522;2023-12-04T00:48:38;34.38;;;18.92;;
61704;SDS011;47627;48.078;11.522;2023-12-04T00:51:03;30.55;;;17.85;;
61704;SDS011;47627;48.078;11.522;2023-12-04T00:53:28;27.85;;;17.23;;
61704;SDS011;47627;48.078;11.522;2023-12-04T00:55:54;30.38;;;16.67;;
61704;SDS011;47627;48.078;11.522;2023-12-04T00:58:19;26.67;;;17.23;;
61704;SDS011;47627;48.078;11.522;2023-12-04T01:00:44;28.83;;;17.23;;
61704;SDS011;47627;48.078;11.522;2023-12-04T01:03:09;27.85;;;17.67;;
61704;SDS011;47627;48.078;11.522;2023-12-04T01:05:35;27.73;;;17.20;;
61704;SDS011;47627;48.078;11.522;2023-12-04T01:08:00;29.67;;;17.98;;
61704;SDS011;47627;48.078;11.522;2023-12-04T01:10:25;27.88;;;17.67;;
61704;SDS011;47627;48.078;11.522;2023-12-04T01:12:51;29.63;;;18.95;;
61704;SDS011;47627;48.078;11.522;2023-12-04T01:15:16;29.60;;;18.27;;
61704;SDS011;47627;48.078;11.522;2023-12-04T01:17:41;31.67;;;17.88;;
61704;SDS011;47627;48.078;11.522;2023-12-04T01:20:07;29.52;;;18.88;;
61704;SDS011;47627;48.078;11.522;2023-12-04T01:22:32;28.30;;;17.80;;
61704;SDS011;47627;48.078;11.522;2023-12-04T01:24:57;30.15;;;18.33;;
61704;SDS011;47627;48.078;11.522;2023-12-04T01:27:23;31.63;;;19.30;;
61704;SDS011;47627;48.078;11.522;2023-12-04T01:29:48;29.08;;;18.98;;
61704;SDS011;47627;48.078;11.522;2023-12-04T01:32:13;31.75;;;19.88;;
61704;SDS011;47627;48.078;11.522;2023-12-04T01:34:38;34.25;;;21.58;;
61704;SDS011;47627;48.078;11.522;2023-12-04T01:37:03;31.80;;;19.90;;
61704;SDS011;47627;48.078;11.522;2023-12-04T01:39:29;30.13;;;19.67;;
61704;SDS011;47627;48.078;11.522;2023-12-04T01:41:54;31.58;;;19.13;;
61704;SDS011;47627;48.078;11.522;2023-12-04T01:44:19;31.00;;;19.35;;
61704;SDS011;47627;48.078;11.522;2023-12-04T01:46:44;29.85;;;19.23;;
61704;SDS011;47627;48.078;11.522;2023-12-04T01:49:10;34.35;;;19.60;;
61704;SDS011;47627;48.078;11.522;2023-12-04T01:51:35;31.55;;;18.98;;
61704;SDS011;47627;48.078;11.522;2023-12-04T01:54:00;30.58;;;19.55;;
61704;SDS011;47627;48.078;11.522;2023-12-04T01:56:27;31.60;;;19.02;;
61704;SDS011;47627;48.078;11.522;2023-12-04T01:58:52;30.55;;;18.75;;
61704;SDS011;47627;48.078;11.522;2023-12-04T02:01:18;28.17;;;17.90;;
61704;SDS011;47627;48.078;11.522;2023-12-04T02:03:44;29.23;;;18.20;;
61704;SDS011;47627;48.078;11.522;2023-12-04T02:06:10;28.55;;;18.05;;
61704;SDS011;47627;48.078;11.522;2023-12-04T02:08:36;27.92;;;17.75;;
61704;SDS011;47627;48.078;11.522;2023-12-04T02:11:01;25.55;;;17.13;;
61704;SDS011;47627;48.078;11.522;2023-12-04T02:13:26;25.80;;;17.50;;
61704;SDS011;47627;48.078;11.522;2023-12-04T02:15:53;29.98;;;18.25;;
61704;SDS011;47627;48.078;11.522;2023-12-04T02:18:18;27.45;;;17.58;;
61704;SDS011;47627;48.078;11.522;2023-12-04T02:20:44;26.88;;;16.90;;
61704;SDS011;47627;48.078;11.522;2023-12-04T02:23:09;28.45;;;17.38;;
61704;SDS011;47627;48.078;11.522;2023-12-04T02:25:34;27.02;;;16.90;;
61704;SDS011;47627;48.078;11.522;2023-12-04T02:28:01;26.33;;;16.83;;
61704;SDS011;47627;48.078;11.522;2023-12-04T02:30:27;27.40;;;16.92;;
61704;SDS011;47627;48.078;11.522;2023-12-04T02:32:53;29.90;;;18.80;;
61704;SDS011;47627;48.078;11.522;2023-12-04T02:35:20;27.52;;;18.60;;
61704;SDS011;47627;48.078;11.522;2023-12-04T02:37:46;27.17;;;18.02;;
61704;SDS011;47627;48.078;11.522;2023-12-04T02:40:12;28.48;;;17.73;;
61704;SDS011;47627;48.078;11.522;2023-12-04T02:42:38;25.52;;;17.05;;
61704;SDS011;47627;48.078;11.522;2023-12-04T02:45:03;29.58;;;17.05;;
61704;SDS011;47627;48.078;11.522;2023-12-04T02:47:28;27.15;;;16.73;;
61704;SDS011;47627;48.078;11.522;2023-12-04T02:49:53;27.15;;;16.70;;
61704;SDS011;47627;48.078;11.522;2023-12-04T02:52:19;27.80;;;17.42;;
61704;SDS011;47627;48.078;11.522;2023-12-04T02:54:44;23.73;;;15.07;;
61704;SDS011;47627;48.078;11.522;2023-12-04T02:57:09;26.42;;;16.63;;
61704;SDS011;47627;48.078;11.522;2023-12-04T02:59:34;25.50;;;16.70;;
61704;SDS011;47627;48.078;11.522;2023-12-04T03:01:59;26.30;;;15.82;;
61704;SDS011;47627;48.078;11.522;2023-12-04T03:04:26;22.95;;;15.75;;
61704;SDS011;47627;48.078;11.522;2023-12-04T03:06:51;22.48;;;14.80;;
61704;SDS011;47627;48.078;11.522;2023-12-04T03:09:16;26.48;;;15.75;;
61704;SDS011;47627;48.078;11.522;2023-12-04T03:11:42;24.92;;;15.60;;
61704;SDS011;47627;48.078;11.522;2023-12-04T03:14:07;23.30;;;15.27;;
61704;SDS011;47627;48.078;11.522;2023-12-04T03:16:32;24.35;;;15.15;;
61704;SDS011;47627;48.078;11.522;2023-12-04T03:18:57;25.20;;;15.13;;
61704;SDS011;47627;48.078;11.522;2023-12-04T03:21:22;26.42;;;15.27;;
61704;SDS011;47627;48.078;11.522;2023-12-04T03:23:48;24.40;;;14.48;;
61704;SDS011;47627;48.078;11.522;2023-12-04T03:26:13;23.10;;;14.77;;
61704;SDS011;47627;48.078;11.522;2023-12-04T03:28:38;22.65;;;14.73;;
61704;SDS011;47627;48.078;11.522;2023-12-04T03:31:05;21.50;;;14.23;;
61704;SDS011;47627;48.078;11.522;2023-12-04T03:33:30;23.92;;;15.68;;
61704;SDS011;47627;48.078;11.522;2023-12-04T03:35:55;21.98;;;14.43;;
61704;SDS011;47627;48.078;11.522;2023-12-04T03:38:20;20.33;;;13.82;;
61704;SDS011;47627;48.078;11.522;2023-12-04T03:40:46;22.60;;;14.35;;
61704;SDS011;47627;48.078;11.522;2023-12-04T03:43:11;22.83;;;15.15;;
61704;SDS011;47627;48.078;11.522;2023-12-04T03:45:36;22.27;;;14.45;;
61704;SDS011;47627;48.078;11.522;2023-12-04T03:48:01;24.73;;;14.25;;
61704;SDS011;47627;48.078;11.522;2023-12-04T03:50:27;21.65;;;14.68;;
61704;SDS011;47627;48.078;11.522;2023-12-04T03:52:52;22.42;;;12.95;;
61704;SDS011;47627;48.078;11.522;2023-12-04T03:55:17;23.08;;;15.05;;
61704;SDS011;47627;48.078;11.522;2023-12-04T03:57:44;20.70;;;13.85;;
61704;SDS011;47627;48.078;11.522;2023-12-04T04:00:10;21.30;;;13.68;;
61704;SDS011;47627;48.078;11.522;2023-12-04T04:02:39;22.45;;;13.80;;
61704;SDS011;47627;48.078;11.522;2023-12-04T04:05:04;19.48;;;13.27;;
61704;SDS011;47627;48.078;11.522;2023-12-04T04:07:29;23.60;;;13.98;;
61704;SDS011;47627;48.078;11.522;2023-12-04T04:09:55;21.35;;;13.90;;
61704;SDS011;47627;48.078;11.522;2023-12-04T04:12:20;25.23;;;13.75;;
61704;SDS011;47627;48.078;11.522;2023-12-04T04:14:46;22.98;;;15.18;;
61704;SDS011;47627;48.078;11.522;2023-12-04T04:17:11;26.38;;;15.77;;
61704;SDS011;47627;48.078;11.522;2023-12-04T04:19:37;25.17;;;15.75;;
61704;SDS011;47627;48.078;11.522;2023-12-04T04:22:02;21.67;;;15.48;;
61704;SDS011;47627;48.078;11.522;2023-12-04T04:24:28;22.48;;;14.18;;
61704;SDS011;47627;48.078;11.522;2023-12-04T04:26:53;22.77;;;15.48;;
61704;SDS011;47627;48.078;11.522;2023-12-04T04:29:18;23.02;;;14.65;;
61704;SDS011;47627;48.078;11.522;2023-12-04T04:31:43;23.95;;;14.40;;
61704;SDS011;47627;48.078;11.522;2023-12-04T04:34:09;25.77;;;15.65;;
61704;SDS011;47627;48.078;11.522;2023-12-04T04:36:34;23.33;;;15.07;;
61704;SDS011;47627;48.078;11.522;2023-12-04T04:39:00;23.83;;;15.25;;
61704;SDS011;47627;48.078;11.522;2023-12-04T04:41:25;21.67;;;14.25;;
61704;SDS011;47627;48.078;11.522;2023-12-04T04:43:51;21.83;;;14.52;;
61704;SDS011;47627;48.078;11.522;2023-12-04T04:46:16;20.05;;;13.95;;
61704;SDS011;47627;48.078;11.522;2023-12-04T04:48:41;22.48;;;15.52;;
61704;SDS011;47627;48.078;11.522;2023-12-04T04:51:06;22.85;;;14.93;;
61704;SDS011;47627;48.078;11.522;2023-12-04T04:53:32;23.77;;;14.57;;
61704;SDS011;47627;48.078;11.522;2023-12-04T04:55:57;23.20;;;14.77;;
61704;SDS011;47627;48.078;11.522;2023-12-04T04:58:22;22.55;;;14.75;;
61704;SDS011;47627;48.078;11.522;2023-12-04T05:00:47;19.63;;;13.23;;
61704;SDS011;47627;48.078;11.522;2023-12-04T05:03:13;23.60;;;14.88;;
61704;SDS011;47627;48.078;11.522;2023-12-04T05:05:38;21.08;;;14.00;;
61704;SDS011;47627;48.078;11.522;2023-12-04T05:08:03;21.38;;;13.90;;
61704;SDS011;47627;48.078;11.522;2023-12-04T05:10:28;20.15;;;13.60;;
61704;SDS011;47627;48.078;11.522;2023-12-04T05:12:54;19.08;;;13.13;;
61704;SDS011;47627;48.078;11.522;2023-12-04T05:15:19;20.98;;;13.85;;
61704;SDS011;47627;48.078;11.522;2023-12-04T05:17:44;19.27;;;13.80;;
61704;SDS011;47627;48.078;11.522;2023-12-04T05:20:09;18.45;;;13.25;;
61704;SDS011;47627;48.078;11.522;2023-12-04T05:22:35;21.90;;;13.90;;
61704;SDS011;47627;48.078;11.522;2023-12-04T05:25:00;22.50;;;13.75;;
61704;SDS011;47627;48.078;11.522;2023-12-04T05:27:26;22.13;;;13.88;;
61704;SDS011;47627;48.078;11.522;2023-12-04T05:29:51;20.05;;;13.13;;
61704;SDS011;47627;48.078;11.522;2023-12-04T05:32:17;22.65;;;14.32;;
61704;SDS011;47627;48.078;11.522;2023-12-04T05:34:42;23.48;;;15.10;;
61704;SDS011;47627;48.078;11.522;2023-12-04T05:37:07;21.05;;;14.52;;
61704;SDS011;47627;48.078;11.522;2023-12-04T05:39:33;20.33;;;12.73;;
61704;SDS011;47627;48.078;11.522;2023-12-04T05:41:58;21.88;;;12.93;;
61704;SDS011;47627;48.078;11.522;2023-12-04T05:44:23;40.30;;;17.67;;
61704;SDS011;47627;48.078;11.522;2023-12-04T05:46:48;32.92;;;16.48;;
61704;SDS011;47627;48.078;11.522;2023-12-04T05:49:13;23.52;;;14.07;;
61704;SDS011;47627;48.078;11.522;2023-12-04T05:51:39;23.15;;;14.32;;
61704;SDS011;47627;48.078;11.522;2023-12-04T05:54:04;30.88;;;17.42;;
61704;SDS011;47627;48.078;11.522;2023-12-04T05:56:29;29.67;;;17.13;;
61704;SDS011;47627;48.078;11.522;2023-12-04T05:58:54;30.50;;;18.35;;
61704;SDS011;47627;48.078;11.522;2023-12-04T06:01:21;30.27;;;17.10;;
61704;SDS011;47627;48.078;11.522;2023-12-04T06:03:46;23.45;;;14.98;;
61704;SDS011;47627;48.078;11.522;2023-12-04T06:06:11;22.98;;;15.45;;
61704;SDS011;47627;48.078;11.522;2023-12-04T06:08:36;20.85;;;14.27;;
61704;SDS011;47627;48.078;11.522;2023-12-04T06:11:01;22.23;;;14.13;;
61704;SDS011;47627;48.078;11.522;2023-12-04T06:13:27;25.70;;;15.40;;
61704;SDS011;47627;48.078;11.522;2023-12-04T06:15:53;20.88;;;13.13;;
61704;SDS011;47627;48.078;11.522;2023-12-04T06:18:18;20.50;;;12.85;;
61704;SDS011;47627;48.078;11.522;2023-12-04T06:20:45;20.85;;;13.43;;
61704;SDS011;47627;48.078;11.522;2023-12-04T06:23:10;20.38;;;13.15;;
61704;SDS011;47627;48.078;11.522;2023-12-04T06:25:36;20.98;;;14.77;;
61704;SDS011;47627;48.078;11.522;2023-12-04T06:28:01;21.90;;;14.00;;
61704;SDS011;47627;48.078;11.522;2023-12-04T06:30:26;21.63;;;13.82;;
61704;SDS011;47627;48.078;11.522;2023-12-04T06:32:52;21.27;;;13.48;;
61704;SDS011;47627;48.078;11.522;2023-12-04T06:35:17;24.35;;;13.85;;
61704;SDS011;47627;48.078;11.522;2023-12-04T06:37:43;18.88;;;12.68;;
61704;SDS011;47627;48.078;11.522;2023-12-04T06:40:08;21.08;;;13.05;;
61704;SDS011;47627;48.078;11.522;2023-12-04T06:42:36;19.02;;;12.80;;
61704;SDS011;47627;48.078;11.522;2023-12-04T06:45:01;19.20;;;13.10;;
61704;SDS011;47627;48.078;11.522;2023-12-04T06:47:26;21.38;;;12.77;;
61704;SDS011;47627;48.078;11.522;2023-12-04T06:49:53;23.08;;;13.80;;
61704;SDS011;47627;48.078;11.522;2023-12-04T06:52:18;19.45;;;12.50;;
61704;SDS011;47627;48.078;11.522;2023-12-04T06:54:43;21.63;;;13.10;;
61704;SDS011;47627;48.078;11.522;2023-12-04T06:57:12;19.35;;;12.90;;
61704;SDS011;47627;48.078;11.522;2023-12-04T06:59:39;19.75;;;13.65;;
61704;SDS011;47627;48.078;11.522;2023-12-04T07:02:05;19.55;;;13.50;;
61704;SDS011;47627;48.078;11.522;2023-12-04T07:04:30;21.70;;;14.27;;
61704;SDS011;47627;48.078;11.522;2023-12-04T07:06:55;18.30;;;13.05;;
61704;SDS011;47627;48.078;11.522;2023-12-04T07:09:23;19.30;;;13.00;;
61704;SDS011;47627;48.078;11.522;2023-12-04T07:11:48;20.60;;;13.25;;
61704;SDS011;47627;48.078;11.522;2023-12-04T07:14:13;21.65;;;12.75;;
61704;SDS011;47627;48.078;11.522;2023-12-04T07:16:42;20.92;;;14.00;;
61704;SDS011;47627;48.078;11.522;2023-12-04T07:19:07;23.38;;;13.57;;
61704;SDS011;47627;48.078;11.522;2023-12-04T07:21:32;18.15;;;11.90;;
61704;SDS011;47627;48.078;11.522;2023-12-04T07:23:58;21.30;;;13.98;;
61704;SDS011;47627;48.078;11.522;2023-12-04T07:26:23;19.20;;;11.52;;
61704;SDS011;47627;48.078;11.522;2023-12-04T07:28:48;20.13;;;12.02;;
61704;SDS011;47627;48.078;11.522;2023-12-04T07:31:13;21.35;;;13.15;;
61704;SDS011;47627;48.078;11.522;2023-12-04T07:33:38;19.38;;;12.65;;
61704;SDS011;47627;48.078;11.522;2023-12-04T07:36:04;22.60;;;13.38;;
61704;SDS011;47627;48.078;11.522;2023-12-04T07:38:29;21.20;;;13.45;;
61704;SDS011;47627;48.078;11.522;2023-12-04T07:40:54;21.55;;;12.75;;
61704;SDS011;47627;48.078;11.522;2023-12-04T07:43:20;18.83;;;12.52;;
61704;SDS011;47627;48.078;11.522;2023-12-04T07:45:45;20.80;;;13.02;;
61704;SDS011;47627;48.078;11.522;2023-12-04T07:48:10;20.02;;;14.07;;
61704;SDS011;47627;48.078;11.522;2023-12-04T07:50:35;19.80;;;12.98;;
61704;SDS011;47627;48.078;11.522;2023-12-04T07:53:02;22.20;;;14.52;;
61704;SDS011;47627;48.078;11.522;2023-12-04T07:55:28;21.77;;;14.30;;
61704;SDS011;47627;48.078;11.522;2023-12-04T07:57:53;22.52;;;13.43;;
61704;SDS011;47627;48.078;11.522;2023-12-04T08:00:18;19.90;;;13.43;;
61704;SDS011;47627;48.078;11.522;2023-12-04T08:02:44;22.85;;;14.70;;
61704;SDS011;47627;48.078;11.522;2023-12-04T08:05:11;18.40;;;13.38;;
61704;SDS011;47627;48.078;11.522;2023-12-04T08:07:36;21.40;;;13.35;;
61704;SDS011;47627;48.078;11.522;2023-12-04T08:10:01;21.27;;;13.68;;
61704;SDS011;47627;48.078;11.522;2023-12-04T08:12:27;23.83;;;13.88;;
61704;SDS011;47627;48.078;11.522;2023-12-04T08:14:52;20.95;;;13.15;;
61704;SDS011;47627;48.078;11.522;2023-12-04T08:17:17;18.85;;;11.93;;
61704;SDS011;47627;48.078;11.522;2023-12-04T08:19:43;20.05;;;13.25;;
61704;SDS011;47627;48.078;11.522;2023-12-04T08:22:08;20.48;;;12.90;;
61704;SDS011;47627;48.078;11.522;2023-12-04T08:24:34;19.58;;;12.13;;
61704;SDS011;47627;48.078;11.522;2023-12-04T08:26:59;22.98;;;14.25;;
61704;SDS011;47627;48.078;11.522;2023-12-04T08:29:24;23.17;;;14.98;;
61704;SDS011;47627;48.078;11.522;2023-12-04T08:31:50;20.15;;;13.57;;
61704;SDS011;47627;48.078;11.522;2023-12-04T08:34:15;18.40;;;13.30;;
61704;SDS011;47627;48.078;11.522;2023-12-04T08:36:40;22.85;;;12.90;;
61704;SDS011;47627;48.078;11.522;2023-12-04T08:39:06;18.48;;;12.63;;
61704;SDS011;47627;48.078;11.522;2023-12-04T08:41:31;19.10;;;13.05;;
61704;SDS011;47627;48.078;11.522;2023-12-04T08:43:56;19.60;;;12.45;;
61704;SDS011;47627;48.078;11.522;2023-12-04T08:46:22;18.80;;;12.98;;
61704;SDS011;47627;48.078;11.522;2023-12-04T08:48:47;18.75;;;12.38;;
61704;SDS011;47627;48.078;11.522;2023-12-04T08:51:18;19.13;;;13.55;;
61704;SDS011;47627;48.078;11.522;2023-12-04T08:53:44;19.35;;;13.20;;
61704;SDS011;47627;48.078;11.522;2023-12-04T08:56:09;22.00;;;14.60;;
61704;SDS011;47627;48.078;11.522;2023-12-04T08:58:34;19.65;;;14.85;;
61704;SDS011;47627;48.078;11.522;2023-12-04T09:01:00;20.13;;;14.68;;
61704;SDS011;47627;48.078;11.522;2023-12-04T09:03:25;19.67;;;14.05;;
61704;SDS011;47627;48.078;11.522;2023-12-04T09:05:50;22.10;;;14.38;;
61704;SDS011;47627;48.078;11.522;2023-12-04T09:08:17;20.33;;;14.57;;
61704;SDS011;47627;48.078;11.522;2023-12-04T09:10:42;30.48;;;17.50;;
61704;SDS011;47627;48.078;11.522;2023-12-04T09:13:07;24.83;;;17.73;;
61704;SDS011;47627;48.078;11.522;2023-12-04T09:15:32;26.05;;;17.25;;
61704;SDS011;47627;48.078;11.522;2023-12-04T09:17:57;27.92;;;17.77;;
61704;SDS011;47627;48.078;11.522;2023-12-04T09:20:23;27.00;;;17.73;;
61704;SDS011;47627;48.078;11.522;2023-12-04T09:22:48;29.30;;;17.98;;
61704;SDS011;47627;48.078;11.522;2023-12-04T09:25:14;24.70;;;16.88;;
61704;SDS011;47627;48.078;11.522;2023-12-04T09:27:39;22.73;;;15.18;;
61704;SDS011;47627;48.078;11.522;2023-12-04T09:30:05;24.40;;;16.05;;
61704;SDS011;47627;48.078;11.522;2023-12-04T09:32:30;25.45;;;16.17;;
61704;SDS011;47627;48.078;11.522;2023-12-04T09:34:55;32.22;;;17.77;;
61704;SDS011;47627;48.078;11.522;2023-12-04T09:37:20;27.00;;;17.05;;
61704;SDS011;47627;48.078;11.522;2023-12-04T09:39:46;26.90;;;16.65;;
61704;SDS011;47627;48.078;11.522;2023-12-04T09:42:14;26.20;;;16.40;;
61704;SDS011;47627;48.078;11.522;2023-12-04T09:44:40;23.55;;;16.65;;
61704;SDS011;47627;48.078;11.522;2023-12-04T09:47:05;26.15;;;15.32;;
61704;SDS011;47627;48.078;11.522;2023-12-04T09:49:31;23.40;;;15.48;;
61704;SDS011;47627;48.078;11.522;2023-12-04T09:52:00;24.95;;;15.68;;
61704;SDS011;47627;48.078;11.522;2023-12-04T09:54:25;21.60;;;14.65;;
61704;SDS011;47627;48.078;11.522;2023-12-04T09:56:51;23.67;;;15.68;;
61704;SDS011;47627;48.078;11.522;2023-12-04T09:59:17;24.48;;;15.38;;
61704;SDS011;47627;48.078;11.522;2023-12-04T10:01:42;21.40;;;14.70;;
61704;SDS011;47627;48.078;11.522;2023-12-04T10:04:08;21.80;;;15.10;;
61704;SDS011;47627;48.078;11.522;2023-12-04T10:06:34;24.08;;;15.77;;
61704;SDS011;47627;48.078;11.522;2023-12-04T10:09:01;24.73;;;15.10;;
61704;SDS011;47627;48.078;11.522;2023-12-04T10:11:27;27.02;;;15.70;;
61704;SDS011;47627;48.078;11.522;2023-12-04T10:13:52;26.70;;;16.10;;
61704;SDS011;47627;48.078;11.522;2023-12-04T10:16:34;24.50;;;16.02;;
61704;SDS011;47627;48.078;11.522;2023-12-04T10:19:18;25.83;;;15.30;;
61704;SDS011;47627;48.078;11.522;2023-12-04T10:21:44;22.10;;;13.02;;
61704;SDS011;47627;48.078;11.522;2023-12-04T10:24:10;19.85;;;12.95;;
61704;SDS011;47627;48.078;11.522;2023-12-04T10:26:35;23.80;;;14.20;;
61704;SDS011;47627;48.078;11.522;2023-12-04T10:29:01;22.70;;;13.98;;
61704;SDS011;47627;48.078;11.522;2023-12-04T10:31:31;22.40;;;15.32;;
61704;SDS011;47627;48.078;11.522;2023-12-04T10:33:56;25.38;;;15.38;;
61704;SDS011;47627;48.078;11.522;2023-12-04T10:36:22;18.83;;;13.75;;
61704;SDS011;47627;48.078;11.522;2023-12-04T10:38:47;18.27;;;11.93;;
61704;SDS011;47627;48.078;11.522;2023-12-04T10:41:22;19.05;;;12.93;;
61704;SDS011;47627;48.078;11.522;2023-12-04T10:43:47;22.30;;;12.93;;
61704;SDS011;47627;48.078;11.522;2023-12-04T10:46:14;18.00;;;12.82;;
61704;SDS011;47627;48.078;11.522;2023-12-04T10:48:41;23.90;;;12.85;;
61704;SDS011;47627;48.078;11.522;2023-12-04T10:51:07;17.73;;;12.27;;
61704;SDS011;47627;48.078;11.522;2023-12-04T10:53:32;15.10;;;10.10;;
61704;SDS011;47627;48.078;11.522;2023-12-04T10:55:58;14.85;;;10.52;;
61704;SDS011;47627;48.078;11.522;2023-12-04T10:58:24;14.07;;;11.05;;
61704;SDS011;47627;48.078;11.522;2023-12-04T11:00:51;15.77;;;10.85;;
61704;SDS011;47627;48.078;11.522;2023-12-04T11:03:25;15.32;;;10.68;;
61704;SDS011;47627;48.078;11.522;2023-12-04T11:05:59;14.88;;;10.20;;
61704;SDS011;47627;48.078;11.522;2023-12-04T11:08:25;13.25;;;10.25;;
61704;SDS011;47627;48.078;11.522;2023-12-04T11:10:56;13.18;;;9.30;;
61704;SDS011;47627;48.078;11.522;2023-12-04T11:13:22;14.48;;;10.25;;
61704;SDS011;47627;48.078;11.522;2023-12-04T11:15:48;17.83;;;10.98;;
61704;SDS011;47627;48.078;11.522;2023-12-04T11:18:15;16.42;;;11.10;;
61704;SDS011;47627;48.078;11.522;2023-12-04T11:20:47;15.57;;;11.13;;
61704;SDS011;47627;48.078;11.522;2023-12-04T11:23:13;17.35;;;10.98;;
61704;SDS011;47627;48.078;11.522;2023-12-04T11:25:39;15.38;;;10.68;;
61704;SDS011;47627;48.078;11.522;2023-12-04T11:28:04;17.30;;;10.63;;
61704;SDS011;47627;48.078;11.522;2023-12-04T11:30:30;17.50;;;11.32;;
61704;SDS011;47627;48.078;11.522;2023-12-04T11:32:55;18.58;;;11.52;;
61704;SDS011;47627;48.078;11.522;2023-12-04T11:35:27;17.00;;;11.88;;
61704;SDS011;47627;48.078;11.522;2023-12-04T11:37:52;15.43;;;10.65;;
61704;SDS011;47627;48.078;11.522;2023-12-04T11:40:18;19.58;;;10.25;;
61704;SDS011;47627;48.078;11.522;2023-12-04T11:42:43;13.50;;;9.68;;
61704;SDS011;47627;48.078;11.522;2023-12-04T11:45:09;13.50;;;10.05;;
61704;SDS011;47627;48.078;11.522;2023-12-04T11:50:18;15.68;;;10.73;;
61704;SDS011;47627;48.078;11.522;2023-12-04T11:52:44;15.43;;;10.95;;
61704;SDS011;47627;48.078;11.522;2023-12-04T11:55:09;17.55;;;11.68;;
61704;SDS011;47627;48.078;11.522;2023-12-04T11:57:38;20.75;;;11.82;;
61704;SDS011;47627;48.078;11.522;2023-12-04T12:05:02;16.88;;;11.10;;
61704;SDS011;47627;48.078;11.522;2023-12-04T12:07:28;16.13;;;11.77;;
61704;SDS011;47627;48.078;11.522;2023-12-04T12:09:54;15.15;;;10.88;;
61704;SDS011;47627;48.078;11.522;2023-12-04T12:12:20;14.95;;;10.65;;
61704;SDS011;47627;48.078;11.522;2023-12-04T12:14:45;18.48;;;10.98;;
61704;SDS011;47627;48.078;11.522;2023-12-04T12:17:10;17.33;;;11.82;;
61704;SDS011;47627;48.078;11.522;2023-12-04T12:19:35;17.70;;;12.02;;
61704;SDS011;47627;48.078;11.522;2023-12-04T12:22:02;23.70;;;12.95;;
61704;SDS011;47627;48.078;11.522;2023-12-04T12:24:28;19.05;;;12.75;;
61704;SDS011;47627;48.078;11.522;2023-12-04T12:26:53;16.80;;;12.27;;
61704;SDS011;47627;48.078;11.522;2023-12-04T12:29:19;18.73;;;12.60;;
61704;SDS011;47627;48.078;11.522;2023-12-04T12:31:44;18.80;;;12.35;;
61704;SDS011;47627;48.078;11.522;2023-12-04T12:34:11;17.42;;;11.63;;
61704;SDS011;47627;48.078;11.522;2023-12-04T12:36:36;13.77;;;11.13;;
61704;SDS011;47627;48.078;11.522;2023-12-04T12:39:01;16.13;;;10.15;;
61704;SDS011;47627;48.078;11.522;2023-12-04T12:41:29;15.50;;;10.80;;
61704;SDS011;47627;48.078;11.522;2023-12-04T12:43:54;17.23;;;10.25;;
61704;SDS011;47627;48.078;11.522;2023-12-04T12:46:20;14.98;;;10.43;;
61704;SDS011;47627;48.078;11.522;2023-12-04T12:48:47;15.30;;;11.00;;
61704;SDS011;47627;48.078;11.522;2023-12-04T12:51:12;18.60;;;11.55;;
61704;SDS011;47627;48.078;11.522;2023-12-04T12:53:37;16.98;;;11.50;;
61704;SDS011;47627;48.078;11.522;2023-12-04T12:56:03;20.75;;;12.27;;
61704;SDS011;47627;48.078;11.522;2023-12-04T12:58:28;14.60;;;10.90;;
61704;SDS011;47627;48.078;11.522;2023-12-04T13:00:54;16.48;;;11.40;;
61704;SDS011;47627;48.078;11.522;2023-12-04T13:03:19;17.52;;;11.88;;
61704;SDS011;47627;48.078;11.522;2023-12-04T13:05:45;15.52;;;10.95;;
61704;SDS011;47627;48.078;11.522;2023-12-04T13:08:10;15.02;;;11.25;;
61704;SDS011;47627;48.078;11.522;2023-12-04T13:10:37;14.60;;;10.23;;
61704;SDS011;47627;48.078;11.522;2023-12-04T13:13:02;16.60;;;11.55;;
61704;SDS011;47627;48.078;11.522;2023-12-04T13:15:27;11.68;;;9.25;;
61704;SDS011;47627;48.078;11.522;2023-12-04T13:17:53;14.80;;;10.85;;
61704;SDS011;47627;48.078;11.522;2023-12-04T13:20:18;12.23;;;9.88;;
61704;SDS011;47627;48.078;11.522;2023-12-04T13:22:43;13.25;;;9.82;;
61704;SDS011;47627;48.078;11.522;2023-12-04T13:25:08;16.17;;;11.75;;
61704;SDS011;47627;48.078;11.522;2023-12-04T13:27:38;19.92;;;11.63;;
61704;SDS011;47627;48.078;11.522;2023-12-04T13:30:04;15.45;;;11.95;;
61704;SDS011;47627;48.078;11.522;2023-12-04T13:32:30;18.63;;;11.18;;
61704;SDS011;47627;48.078;11.522;2023-12-04T13:34:55;15.60;;;11.45;;
61704;SDS011;47627;48.078;11.522;2023-12-04T13:37:20;16.48;;;12.00;;
61704;SDS011;47627;48.078;11.522;2023-12-04T13:39:48;15.60;;;11.13;;
61704;SDS011;47627;48.078;11.522;2023-12-04T13:42:16;17.48;;;13.25;;
61704;SDS011;47627;48.078;11.522;2023-12-04T13:45:00;22.85;;;13.95;;
61704;SDS011;47627;48.078;11.522;2023-12-04T13:47:26;24.63;;;16.08;;
61704;SDS011;47627;48.078;11.522;2023-12-04T13:49:51;31.42;;;17.70;;
61704;SDS011;47627;48.078;11.522;2023-12-04T13:52:16;24.13;;;16.58;;
61704;SDS011;47627;48.078;11.522;2023-12-04T13:54:45;22.85;;;12.77;;
61704;SDS011;47627;48.078;11.522;2023-12-04T13:57:13;21.63;;;14.43;;
61704;SDS011;47627;48.078;11.522;2023-12-04T13:59:46;19.50;;;13.38;;
61704;SDS011;47627;48.078;11.522;2023-12-04T14:02:11;19.50;;;14.65;;
61704;SDS011;47627;48.078;11.522;2023-12-04T14:04:37;16.67;;;12.13;;
61704;SDS011;47627;48.078;11.522;2023-12-04T14:07:04;17.02;;;12.27;;
61704;SDS011;47627;48.078;11.522;2023-12-04T14:09:29;16.25;;;12.30;;